sensor_id;sensor_type;location;lat;lon;timestamp;pressure;altitude;pressure_sealevel;temperature;humidity
43681;BME280;29281;50.356;30.894;2023-03-25T00:01:02;99360.35;;;14.92;71.46
43681;BME280;29281;50.356;30.894;2023-03-25T00:02:05;99354.06;;;14.84;72.09
43681;BME280;29281;50.356;30.894;2023-03-25T00:03:09;99361.20;;;14.93;71.97
43681;BME280;29281;50.356;30.894;2023-03-25T00:04:13;99359.51;;;14.92;71.54
43681;BME280;29281;50.356;30.894;2023-03-25T00:05:19;99355.30;;;14.89;72.18
43681;BME280;29281;50.356;30.894;2023-03-25T00:06:26;99357.68;;;14.92;71.26
43681;BME280;29281;50.356;30.894;2023-03-25T00:07:30;99355.91;;;15.01;71.70
43681;BME280;29281;50.356;30.894;2023-03-25T00:08:33;99357.89;;;14.99;71.60
43681;BME280;29281;50.356;30.894;2023-03-25T00:09:37;99350.95;;;15.06;70.79
43681;BME280;29281;50.356;30.894;2023-03-25T00:10:40;99355.31;;;15.07;71.02
43681;BME280;29281;50.356;30.894;2023-03-25T00:11:43;99342.54;;;15.01;71.78
43681;BME280;29281;50.356;30.894;2023-03-25T00:12:47;99342.00;;;14.97;71.12
43681;BME280;29281;50.356;30.894;2023-03-25T00:13:54;99348.81;;;14.92;71.29
43681;BME280;29281;50.356;30.894;2023-03-25T00:14:57;99346.44;;;14.89;71.42
43681;BME280;29281;50.356;30.894;2023-03-25T00:16:00;99345.00;;;14.94;71.92
43681;BME280;29281;50.356;30.894;2023-03-25T00:17:03;99345.52;;;14.98;71.13
43681;BME280;29281;50.356;30.894;2023-03-25T00:18:07;99340.16;;;14.98;71.24
43681;BME280;29281;50.356;30.894;2023-03-25T00:19:11;99334.67;;;14.99;70.59
43681;BME280;29281;50.356;30.894;2023-03-25T00:20:16;99333.53;;;15.02;70.79
43681;BME280;29281;50.356;30.894;2023-03-25T00:21:20;99331.00;;;15.00;71.65
43681;BME280;29281;50.356;30.894;2023-03-25T00:22:25;99332.33;;;14.96;70.73
43681;BME280;29281;50.356;30.894;2023-03-25T00:23:28;99328.72;;;14.88;71.51
43681;BME280;29281;50.356;30.894;2023-03-25T00:24:32;99324.76;;;14.92;71.04
43681;BME280;29281;50.356;30.894;2023-03-25T00:25:40;99329.80;;;14.95;70.76
43681;BME280;29281;50.356;30.894;2023-03-25T00:26:40;99329.56;;;14.88;71.48
43681;BME280;29281;50.356;30.894;2023-03-25T00:27:45;99329.47;;;14.98;70.50
43681;BME280;29281;50.356;30.894;2023-03-25T00:28:52;99326.59;;;14.91;71.46
43681;BME280;29281;50.356;30.894;2023-03-25T00:29:57;99332.33;;;14.96;70.81
43681;BME280;29281;50.356;30.894;2023-03-25T00:31:00;99331.63;;;14.94;70.75
43681;BME280;29281;50.356;30.894;2023-03-25T00:32:04;99330.80;;;14.94;71.24
43681;BME280;29281;50.356;30.894;2023-03-25T00:33:08;99326.59;;;14.91;71.88
43681;BME280;29281;50.356;30.894;2023-03-25T00:34:14;99327.73;;;14.89;71.37
43681;BME280;29281;50.356;30.894;2023-03-25T00:35:18;99333.77;;;14.91;71.64
43681;BME280;29281;50.356;30.894;2023-03-25T00:36:21;99331.39;;;14.88;72.10
43681;BME280;29281;50.356;30.894;2023-03-25T00:37:34;99330.63;;;14.77;71.50
43681;BME280;29281;50.356;30.894;2023-03-25T00:38:47;99326.73;;;14.90;71.35
43681;BME280;29281;50.356;30.894;2023-03-25T00:39:51;99324.06;;;14.90;71.00
43681;BME280;29281;50.356;30.894;2023-03-25T00:40:54;99317.28;;;14.95;71.20
43681;BME280;29281;50.356;30.894;2023-03-25T00:41:57;99319.11;;;14.95;70.47
43681;BME280;29281;50.356;30.894;2023-03-25T00:43:03;99318.87;;;14.88;70.88
43681;BME280;29281;50.356;30.894;2023-03-25T00:44:08;99316.05;;;14.90;69.81
43681;BME280;29281;50.356;30.894;2023-03-25T00:45:11;99307.97;;;14.82;71.50
43681;BME280;29281;50.356;30.894;2023-03-25T00:46:17;99308.56;;;14.75;71.55
43681;BME280;29281;50.356;30.894;2023-03-25T00:47:22;99312.08;;;14.76;71.69
43681;BME280;29281;50.356;30.894;2023-03-25T00:48:25;99308.17;;;14.88;70.96
43681;BME280;29281;50.356;30.894;2023-03-25T00:49:30;99309.95;;;14.80;71.67
43681;BME280;29281;50.356;30.894;2023-03-25T00:50:33;99319.47;;;14.82;71.66
43681;BME280;29281;50.356;30.894;2023-03-25T00:51:37;99318.71;;;14.72;72.26
43681;BME280;29281;50.356;30.894;2023-03-25T00:52:43;99309.25;;;14.77;72.40
43681;BME280;29281;50.356;30.894;2023-03-25T00:53:49;99304.36;;;14.73;72.91
43681;BME280;29281;50.356;30.894;2023-03-25T00:54:54;99301.53;;;14.74;73.83
43681;BME280;29281;50.356;30.894;2023-03-25T00:55:57;99307.41;;;14.60;74.20
43681;BME280;29281;50.356;30.894;2023-03-25T00:57:03;99297.70;;;14.59;73.84
43681;BME280;29281;50.356;30.894;2023-03-25T00:58:05;99292.06;;;14.62;74.65
43681;BME280;29281;50.356;30.894;2023-03-25T00:59:10;99297.56;;;14.61;74.56
43681;BME280;29281;50.356;30.894;2023-03-25T01:00:14;99301.07;;;14.61;74.75
43681;BME280;29281;50.356;30.894;2023-03-25T01:01:18;99301.22;;;14.60;74.92
43681;BME280;29281;50.356;30.894;2023-03-25T01:02:26;99297.16;;;14.56;74.75
43681;BME280;29281;50.356;30.894;2023-03-25T01:03:30;99294.34;;;14.57;74.91
43681;BME280;29281;50.356;30.894;2023-03-25T01:04:33;99295.48;;;14.55;75.05
43681;BME280;29281;50.356;30.894;2023-03-25T01:05:38;99303.49;;;14.55;74.46
43681;BME280;29281;50.356;30.894;2023-03-25T01:06:42;99304.05;;;14.58;74.27
43681;BME280;29281;50.356;30.894;2023-03-25T01:07:46;99309.31;;;14.50;75.03
43681;BME280;29281;50.356;30.894;2023-03-25T01:08:51;99307.30;;;14.52;74.49
43681;BME280;29281;50.356;30.894;2023-03-25T01:09:58;99321.69;;;14.51;74.50
43681;BME280;29281;50.356;30.894;2023-03-25T01:11:02;99321.83;;;14.50;74.42
43681;BME280;29281;50.356;30.894;2023-03-25T01:12:06;99314.48;;;14.52;74.82
43681;BME280;29281;50.356;30.894;2023-03-25T01:13:09;99308.00;;;14.54;74.51
43681;BME280;29281;50.356;30.894;2023-03-25T01:14:14;99308.84;;;14.55;74.63
43681;BME280;29281;50.356;30.894;2023-03-25T01:15:18;99309.68;;;14.55;74.89
43681;BME280;29281;50.356;30.894;2023-03-25T01:16:28;99309.91;;;14.44;74.72
43681;BME280;29281;50.356;30.894;2023-03-25T01:17:28;99309.20;;;14.42;74.89
43681;BME280;29281;50.356;30.894;2023-03-25T01:18:34;99309.80;;;14.36;74.93
43681;BME280;29281;50.356;30.894;2023-03-25T01:19:40;99310.59;;;14.46;74.64
43681;BME280;29281;50.356;30.894;2023-03-25T01:20:44;99317.22;;;14.42;74.37
43681;BME280;29281;50.356;30.894;2023-03-25T01:21:48;99313.75;;;14.32;73.83
43681;BME280;29281;50.356;30.894;2023-03-25T01:22:55;99306.28;;;14.35;74.42
43681;BME280;29281;50.356;30.894;2023-03-25T01:23:58;99304.74;;;14.33;73.10
43681;BME280;29281;50.356;30.894;2023-03-25T01:25:03;99302.88;;;14.43;74.03
43681;BME280;29281;50.356;30.894;2023-03-25T01:26:08;99304.95;;;14.49;73.57
43681;BME280;29281;50.356;30.894;2023-03-25T01:27:13;99306.54;;;14.42;72.92
43681;BME280;29281;50.356;30.894;2023-03-25T01:28:16;99303.91;;;14.32;73.59
43681;BME280;29281;50.356;30.894;2023-03-25T01:29:20;99307.53;;;14.41;72.91
43681;BME280;29281;50.356;30.894;2023-03-25T01:30:25;99312.72;;;14.42;72.93
43681;BME280;29281;50.356;30.894;2023-03-25T01:31:29;99307.42;;;14.33;72.69
43681;BME280;29281;50.356;30.894;2023-03-25T01:32:33;99311.77;;;14.34;72.37
43681;BME280;29281;50.356;30.894;2023-03-25T01:33:36;99307.70;;;14.30;72.98
43681;BME280;29281;50.356;30.894;2023-03-25T01:34:39;99311.95;;;14.23;71.98
43681;BME280;29281;50.356;30.894;2023-03-25T01:35:44;99309.54;;;14.29;72.50
43681;BME280;29281;50.356;30.894;2023-03-25T01:36:48;99310.78;;;14.35;72.79
43681;BME280;29281;50.356;30.894;2023-03-25T01:37:51;99316.13;;;14.35;72.24
43681;BME280;29281;50.356;30.894;2023-03-25T01:38:56;99312.02;;;14.40;72.14
43681;BME280;29281;50.356;30.894;2023-03-25T01:40:00;99314.12;;;14.37;71.56
43681;BME280;29281;50.356;30.894;2023-03-25T01:41:04;99305.25;;;14.46;71.75
43681;BME280;29281;50.356;30.894;2023-03-25T01:42:09;99305.41;;;14.45;71.54
43681;BME280;29281;50.356;30.894;2023-03-25T01:43:13;99302.29;;;14.49;70.51
43681;BME280;29281;50.356;30.894;2023-03-25T01:45:28;99307.78;;;14.48;70.61
43681;BME280;29281;50.356;30.894;2023-03-25T01:46:34;99309.09;;;14.34;71.10
43681;BME280;29281;50.356;30.894;2023-03-25T01:47:37;99311.19;;;14.40;71.41
43681;BME280;29281;50.356;30.894;2023-03-25T01:48:41;99319.45;;;14.47;71.07
43681;BME280;29281;50.356;30.894;2023-03-25T01:49:46;99314.55;;;14.42;71.09
43681;BME280;29281;50.356;30.894;2023-03-25T01:50:53;99311.62;;;14.35;70.98
43681;BME280;29281;50.356;30.894;2023-03-25T01:52:04;99313.13;;;14.38;71.33
43681;BME280;29281;50.356;30.894;2023-03-25T01:53:09;99314.11;;;14.47;70.96
43681;BME280;29281;50.356;30.894;2023-03-25T01:54:13;99313.81;;;14.50;70.59
43681;BME280;29281;50.356;30.894;2023-03-25T01:55:19;99321.36;;;14.54;70.53
43681;BME280;29281;50.356;30.894;2023-03-25T01:56:27;99314.48;;;14.52;70.86
43681;BME280;29281;50.356;30.894;2023-03-25T01:57:27;99318.91;;;14.43;70.77
43681;BME280;29281;50.356;30.894;2023-03-25T01:58:33;99315.25;;;14.44;71.29
43681;BME280;29281;50.356;30.894;2023-03-25T01:59:37;99318.47;;;14.38;71.64
43681;BME280;29281;50.356;30.894;2023-03-25T02:00:40;99318.39;;;14.30;71.63
43681;BME280;29281;50.356;30.894;2023-03-25T02:01:46;99314.59;;;14.32;72.19
43681;BME280;29281;50.356;30.894;2023-03-25T02:02:51;99312.14;;;14.39;72.08
43681;BME280;29281;50.356;30.894;2023-03-25T02:03:56;99311.45;;;14.37;72.15
43681;BME280;29281;50.356;30.894;2023-03-25T02:05:12;99306.72;;;14.31;72.17
43681;BME280;29281;50.356;30.894;2023-03-25T02:06:21;99308.06;;;14.17;72.51
43681;BME280;29281;50.356;30.894;2023-03-25T02:07:25;99315.46;;;14.23;71.94
43681;BME280;29281;50.356;30.894;2023-03-25T02:08:32;99306.61;;;14.23;72.00
43681;BME280;29281;50.356;30.894;2023-03-25T02:09:39;99312.79;;;14.23;71.19
43681;BME280;29281;50.356;30.894;2023-03-25T02:10:44;99308.70;;;14.29;71.59
43681;BME280;29281;50.356;30.894;2023-03-25T02:11:49;99307.02;;;14.28;71.11
43681;BME280;29281;50.356;30.894;2023-03-25T02:12:55;99314.47;;;14.24;71.35
43681;BME280;29281;50.356;30.894;2023-03-25T02:14:03;99304.78;;;14.23;71.08
43681;BME280;29281;50.356;30.894;2023-03-25T02:15:04;99313.48;;;14.25;71.50
43681;BME280;29281;50.356;30.894;2023-03-25T02:16:15;99305.54;;;14.16;70.69
43681;BME280;29281;50.356;30.894;2023-03-25T02:18:38;99310.88;;;14.16;71.34
43681;BME280;29281;50.356;30.894;2023-03-25T02:29:16;99301.13;;;14.24;70.68
43681;BME280;29281;50.356;30.894;2023-03-25T02:33:14;99296.72;;;14.05;70.81
43681;BME280;29281;50.356;30.894;2023-03-25T02:36:04;99296.98;;;14.12;71.32
43681;BME280;29281;50.356;30.894;2023-03-25T02:40:32;99291.70;;;14.02;70.48
43681;BME280;29281;50.356;30.894;2023-03-25T02:41:38;99296.22;;;13.92;69.83
43681;BME280;29281;50.356;30.894;2023-03-25T02:42:48;99298.05;;;13.92;70.27
43681;BME280;29281;50.356;30.894;2023-03-25T02:43:56;99298.66;;;13.86;70.63
43681;BME280;29281;50.356;30.894;2023-03-25T02:46:09;99291.29;;;13.97;69.93
43681;BME280;29281;50.356;30.894;2023-03-25T02:47:15;99294.89;;;14.06;69.52
43681;BME280;29281;50.356;30.894;2023-03-25T02:48:20;99293.53;;;14.02;69.28
43681;BME280;29281;50.356;30.894;2023-03-25T02:50:09;99302.11;;;13.96;68.62
43681;BME280;29281;50.356;30.894;2023-03-25T02:50:45;99302.05;;;14.05;69.68
43681;BME280;29281;50.356;30.894;2023-03-25T02:51:49;99300.49;;;14.13;68.40
43681;BME280;29281;50.356;30.894;2023-03-25T02:52:54;99294.56;;;14.19;68.82
43681;BME280;29281;50.356;30.894;2023-03-25T02:54:00;99293.88;;;14.17;68.89
43681;BME280;29281;50.356;30.894;2023-03-25T02:55:03;99295.30;;;14.11;68.87
43681;BME280;29281;50.356;30.894;2023-03-25T02:56:10;99300.23;;;14.06;68.81
43681;BME280;29281;50.356;30.894;2023-03-25T02:57:15;99297.56;;;14.06;68.13
43681;BME280;29281;50.356;30.894;2023-03-25T02:58:21;99289.47;;;13.98;69.15
43681;BME280;29281;50.356;30.894;2023-03-25T02:59:28;99290.02;;;14.01;69.12
43681;BME280;29281;50.356;30.894;2023-03-25T03:00:36;99291.00;;;14.00;69.37
43681;BME280;29281;50.356;30.894;2023-03-25T03:01:39;99293.67;;;14.00;68.80
43681;BME280;29281;50.356;30.894;2023-03-25T03:02:43;99288.91;;;13.94;69.33
43681;BME280;29281;50.356;30.894;2023-03-25T03:03:52;99285.88;;;13.80;69.59
43681;BME280;29281;50.356;30.894;2023-03-25T03:04:57;99286.73;;;13.80;69.79
43681;BME280;29281;50.356;30.894;2023-03-25T03:06:02;99296.12;;;13.84;69.23
43681;BME280;29281;50.356;30.894;2023-03-25T03:07:09;99287.02;;;13.77;70.20
43681;BME280;29281;50.356;30.894;2023-03-25T03:09:30;99294.03;;;13.78;69.90
43681;BME280;29281;50.356;30.894;2023-03-25T03:10:45;99285.80;;;13.71;68.88
43681;BME280;29281;50.356;30.894;2023-03-25T03:13:18;99290.44;;;13.60;69.43
43681;BME280;29281;50.356;30.894;2023-03-25T03:16:57;99285.74;;;13.81;69.91
43681;BME280;29281;50.356;30.894;2023-03-25T03:21:38;99295.58;;;13.81;68.77
43681;BME280;29281;50.356;30.894;2023-03-25T03:22:50;99291.63;;;13.85;68.97
43681;BME280;29281;50.356;30.894;2023-03-25T03:24:00;99290.23;;;13.81;69.32
43681;BME280;29281;50.356;30.894;2023-03-25T03:25:03;99291.83;;;13.73;69.11
43681;BME280;29281;50.356;30.894;2023-03-25T03:26:20;99288.17;;;13.75;69.17
43681;BME280;29281;50.356;30.894;2023-03-25T03:28:47;99294.73;;;13.80;68.80
43681;BME280;29281;50.356;30.894;2023-03-25T03:29:53;99287.71;;;13.79;68.63
43681;BME280;29281;50.356;30.894;2023-03-25T03:31:01;99284.75;;;13.82;69.11
43681;BME280;29281;50.356;30.894;2023-03-25T03:32:08;99287.33;;;13.74;68.91
43681;BME280;29281;50.356;30.894;2023-03-25T03:33:15;99284.39;;;13.67;68.65
43681;BME280;29281;50.356;30.894;2023-03-25T03:34:19;99284.95;;;13.71;68.89
43681;BME280;29281;50.356;30.894;2023-03-25T03:35:27;99291.97;;;13.72;68.18
43681;BME280;29281;50.356;30.894;2023-03-25T03:36:32;99285.33;;;13.76;68.19
43681;BME280;29281;50.356;30.894;2023-03-25T03:37:50;99284.39;;;13.67;68.48
43681;BME280;29281;50.356;30.894;2023-03-25T03:38:55;99285.94;;;13.70;68.17
43681;BME280;29281;50.356;30.894;2023-03-25T03:39:58;99294.32;;;13.75;67.94
43681;BME280;29281;50.356;30.894;2023-03-25T03:41:05;99294.03;;;13.78;67.35
43681;BME280;29281;50.356;30.894;2023-03-25T03:43:27;99286.63;;;13.72;67.39
43681;BME280;29281;50.356;30.894;2023-03-25T03:44:33;99295.78;;;13.60;67.64
43681;BME280;29281;50.356;30.894;2023-03-25T03:45:39;99298.72;;;13.66;67.73
43681;BME280;29281;50.356;30.894;2023-03-25T03:46:45;99299.70;;;13.65;67.89
43681;BME280;29281;50.356;30.894;2023-03-25T03:47:48;99301.34;;;13.76;67.84
43681;BME280;29281;50.356;30.894;2023-03-25T03:48:56;99314.30;;;13.71;68.36
43681;BME280;29281;50.356;30.894;2023-03-25T03:50:04;99314.34;;;13.52;70.19
43681;BME280;29281;50.356;30.894;2023-03-25T03:51:08;99309.33;;;13.29;71.95
43681;BME280;29281;50.356;30.894;2023-03-25T03:52:18;99304.58;;;13.23;73.42
43681;BME280;29281;50.356;30.894;2023-03-25T03:53:27;99299.92;;;13.35;74.33
43681;BME280;29281;50.356;30.894;2023-03-25T03:54:31;99293.15;;;13.50;75.36
43681;BME280;29281;50.356;30.894;2023-03-25T03:55:39;99286.13;;;13.59;74.98
43681;BME280;29281;50.356;30.894;2023-03-25T03:56:56;99281.45;;;13.61;74.77
43681;BME280;29281;50.356;30.894;2023-03-25T03:58:05;99280.19;;;13.65;74.79
43681;BME280;29281;50.356;30.894;2023-03-25T03:59:09;99284.95;;;13.71;74.99
43681;BME280;29281;50.356;30.894;2023-03-25T04:01:29;99285.09;;;13.69;73.11
43681;BME280;29281;50.356;30.894;2023-03-25T04:02:47;99283.97;;;13.72;72.79
43681;BME280;29281;50.356;30.894;2023-03-25T04:03:57;99290.84;;;13.75;72.70
43681;BME280;29281;50.356;30.894;2023-03-25T04:05:01;99287.06;;;13.67;71.91
43681;BME280;29281;50.356;30.894;2023-03-25T04:07:33;99283.50;;;13.77;72.54
43681;BME280;29281;50.356;30.894;2023-03-25T04:08:44;99280.98;;;13.75;72.77
43681;BME280;29281;50.356;30.894;2023-03-25T04:11:09;99276.20;;;13.79;73.71
43681;BME280;29281;50.356;30.894;2023-03-25T04:12:15;99273.53;;;13.79;73.39
43681;BME280;29281;50.356;30.894;2023-03-25T04:13:19;99275.50;;;13.77;74.09
43681;BME280;29281;50.356;30.894;2023-03-25T04:14:23;99277.73;;;13.81;74.17
43681;BME280;29281;50.356;30.894;2023-03-25T04:15:27;99274.78;;;13.84;74.86
43681;BME280;29281;50.356;30.894;2023-03-25T04:16:31;99272.40;;;13.81;74.33
43681;BME280;29281;50.356;30.894;2023-03-25T04:17:35;99280.27;;;13.83;74.94
43681;BME280;29281;50.356;30.894;2023-03-25T04:18:39;99283.77;;;13.83;74.32
43681;BME280;29281;50.356;30.894;2023-03-25T04:19:41;99280.27;;;13.83;74.99
43681;BME280;29281;50.356;30.894;2023-03-25T04:20:47;99282.09;;;13.82;73.81
43681;BME280;29281;50.356;30.894;2023-03-25T04:21:51;99281.10;;;13.83;74.47
43681;BME280;29281;50.356;30.894;2023-03-25T04:22:54;99278.58;;;13.82;75.46
43681;BME280;29281;50.356;30.894;2023-03-25T04:23:59;99277.73;;;13.81;74.20
43681;BME280;29281;50.356;30.894;2023-03-25T04:25:06;99274.38;;;13.79;74.32
43681;BME280;29281;50.356;30.894;2023-03-25T04:26:08;99276.20;;;13.79;75.72
43681;BME280;29281;50.356;30.894;2023-03-25T04:27:11;99278.86;;;13.79;75.49
43681;BME280;29281;50.356;30.894;2023-03-25T04:28:14;99273.53;;;13.79;75.70
43681;BME280;29281;50.356;30.894;2023-03-25T04:29:20;99272.83;;;13.77;75.56
43681;BME280;29281;50.356;30.894;2023-03-25T04:30:27;99277.04;;;13.79;75.67
43681;BME280;29281;50.356;30.894;2023-03-25T04:31:29;99278.02;;;13.78;75.34
43681;BME280;29281;50.356;30.894;2023-03-25T04:32:33;99283.36;;;13.78;74.99
43681;BME280;29281;50.356;30.894;2023-03-25T04:33:36;99278.17;;;13.77;74.75
43681;BME280;29281;50.356;30.894;2023-03-25T04:34:40;99291.98;;;13.62;73.97
43681;BME280;29281;50.356;30.894;2023-03-25T04:35:44;99283.98;;;13.62;72.77
43681;BME280;29281;50.356;30.894;2023-03-25T04:36:48;99296.52;;;13.52;72.49
43681;BME280;29281;50.356;30.894;2023-03-25T04:37:53;99294.80;;;13.61;72.07
43681;BME280;29281;50.356;30.894;2023-03-25T04:39:00;99287.20;;;13.66;71.96
43681;BME280;29281;50.356;30.894;2023-03-25T04:40:05;99291.55;;;13.67;71.74
43681;BME280;29281;50.356;30.894;2023-03-25T04:41:09;99289.45;;;13.70;71.23
43681;BME280;29281;50.356;30.894;2023-03-25T04:42:11;99295.34;;;13.74;71.08
43681;BME280;29281;50.356;30.894;2023-03-25T04:43:15;99291.51;;;13.77;71.33
43681;BME280;29281;50.356;30.894;2023-03-25T04:44:17;99295.86;;;13.78;70.39
43681;BME280;29281;50.356;30.894;2023-03-25T04:45:22;99291.51;;;13.77;70.79
43681;BME280;29281;50.356;30.894;2023-03-25T04:46:27;99297.26;;;13.82;71.16
43681;BME280;29281;50.356;30.894;2023-03-25T04:47:30;99288.41;;;13.81;72.06
43681;BME280;29281;50.356;30.894;2023-03-25T04:48:36;99287.14;;;13.85;72.81
43681;BME280;29281;50.356;30.894;2023-03-25T04:49:41;99287.57;;;13.81;71.72
43681;BME280;29281;50.356;30.894;2023-03-25T04:50:47;99292.20;;;13.79;71.59
43681;BME280;29281;50.356;30.894;2023-03-25T04:51:54;99285.80;;;13.71;71.96
43681;BME280;29281;50.356;30.894;2023-03-25T04:52:58;99280.45;;;13.71;72.11
43681;BME280;29281;50.356;30.894;2023-03-25T04:54:05;99287.62;;;13.71;71.65
43681;BME280;29281;50.356;30.894;2023-03-25T04:55:11;99285.65;;;13.73;71.73
43681;BME280;29281;50.356;30.894;2023-03-25T04:56:15;99288.31;;;13.73;71.68
43681;BME280;29281;50.356;30.894;2023-03-25T04:57:20;99282.98;;;13.73;72.18
43681;BME280;29281;50.356;30.894;2023-03-25T04:58:23;99281.16;;;13.73;72.08
43681;BME280;29281;50.356;30.894;2023-03-25T04:59:27;99285.65;;;13.73;71.85
43681;BME280;29281;50.356;30.894;2023-03-25T05:00:30;99277.09;;;13.69;72.00
43681;BME280;29281;50.356;30.894;2023-03-25T05:01:33;99278.08;;;13.68;71.72
43681;BME280;29281;50.356;30.894;2023-03-25T05:02:43;99281.87;;;13.66;72.73
43681;BME280;29281;50.356;30.894;2023-03-25T05:03:49;99276.39;;;13.67;72.01
43681;BME280;29281;50.356;30.894;2023-03-25T05:04:54;99277.64;;;13.73;72.18
43681;BME280;29281;50.356;30.894;2023-03-25T05:06:02;99278.91;;;13.69;71.82
43681;BME280;29281;50.356;30.894;2023-03-25T05:07:06;99271.77;;;13.60;71.79
43681;BME280;29281;50.356;30.894;2023-03-25T05:08:12;99269.41;;;13.57;72.22
43681;BME280;29281;50.356;30.894;2023-03-25T05:09:18;99267.73;;;13.56;72.06
43681;BME280;29281;50.356;30.894;2023-03-25T05:10:28;99266.29;;;13.61;72.41
43681;BME280;29281;50.356;30.894;2023-03-25T05:11:32;99271.61;;;13.71;73.64
43681;BME280;29281;50.356;30.894;2023-03-25T05:12:36;99268.67;;;13.64;73.46
43681;BME280;29281;50.356;30.894;2023-03-25T05:13:39;99265.02;;;13.65;73.83
43681;BME280;29281;50.356;30.894;2023-03-25T05:14:42;99266.98;;;13.63;72.93
43681;BME280;29281;50.356;30.894;2023-03-25T05:15:44;99263.05;;;13.67;75.29
43681;BME280;29281;50.356;30.894;2023-03-25T05:16:49;99263.61;;;13.71;73.95
43681;BME280;29281;50.356;30.894;2023-03-25T05:17:53;99266.97;;;13.73;74.65
43681;BME280;29281;50.356;30.894;2023-03-25T05:18:57;99266.97;;;13.73;75.58
43681;BME280;29281;50.356;30.894;2023-03-25T05:20:01;99267.11;;;13.71;75.67
43681;BME280;29281;50.356;30.894;2023-03-25T05:21:08;99271.00;;;13.77;75.53
43681;BME280;29281;50.356;30.894;2023-03-25T05:22:16;99273.67;;;13.77;74.66
43681;BME280;29281;50.356;30.894;2023-03-25T05:23:19;99271.55;;;13.81;74.77
43681;BME280;29281;50.356;30.894;2023-03-25T05:24:23;99277.73;;;13.81;74.53
43681;BME280;29281;50.356;30.894;2023-03-25T05:25:28;99267.26;;;13.70;73.32
43681;BME280;29281;50.356;30.894;2023-03-25T05:26:36;99274.08;;;13.82;75.37
43681;BME280;29281;50.356;30.894;2023-03-25T05:27:39;99268.60;;;13.84;75.39
43681;BME280;29281;50.356;30.894;2023-03-25T05:28:41;99270.52;;;13.91;74.76
43681;BME280;29281;50.356;30.894;2023-03-25T05:29:47;99269.39;;;13.94;75.28
43681;BME280;29281;50.356;30.894;2023-03-25T05:30:50;99261.84;;;13.89;75.41
43681;BME280;29281;50.356;30.894;2023-03-25T05:31:55;99263.76;;;13.97;75.21
43681;BME280;29281;50.356;30.894;2023-03-25T05:33:00;99259.47;;;13.86;73.39
43681;BME280;29281;50.356;30.894;2023-03-25T05:34:06;99260.02;;;13.90;74.97
43681;BME280;29281;50.356;30.894;2023-03-25T05:35:10;99262.77;;;13.98;75.53
43681;BME280;29281;50.356;30.894;2023-03-25T05:36:14;99258.06;;;14.09;74.74
43681;BME280;29281;50.356;30.894;2023-03-25T05:37:22;99260.44;;;14.13;74.79
43681;BME280;29281;50.356;30.894;2023-03-25T05:38:24;99258.61;;;14.13;74.53
43681;BME280;29281;50.356;30.894;2023-03-25T05:39:28;99254.11;;;14.14;74.37
43681;BME280;29281;50.356;30.894;2023-03-25T05:40:33;99257.33;;;14.17;74.70
43681;BME280;29281;50.356;30.894;2023-03-25T05:41:37;99266.41;;;14.24;74.14
43681;BME280;29281;50.356;30.894;2023-03-25T05:42:41;99252.61;;;14.29;74.30
43681;BME280;29281;50.356;30.894;2023-03-25T05:43:46;99257.19;;;14.19;73.45
43681;BME280;29281;50.356;30.894;2023-03-25T05:44:51;99255.28;;;14.29;73.30
43681;BME280;29281;50.356;30.894;2023-03-25T05:45:55;99256.20;;;14.20;72.63
43681;BME280;29281;50.356;30.894;2023-03-25T05:46:58;99249.39;;;14.25;73.26
43681;BME280;29281;50.356;30.894;2023-03-25T05:48:05;99249.17;;;14.19;72.08
43681;BME280;29281;50.356;30.894;2023-03-25T05:49:09;99253.75;;;14.26;72.56
43681;BME280;29281;50.356;30.894;2023-03-25T05:50:11;99257.95;;;14.29;70.84
43681;BME280;29281;50.356;30.894;2023-03-25T05:51:16;99252.69;;;14.37;72.47
43681;BME280;29281;50.356;30.894;2023-03-25T05:52:20;99249.45;;;14.43;71.90
43681;BME280;29281;50.356;30.894;2023-03-25T05:53:25;99254.95;;;14.59;71.17
43681;BME280;29281;50.356;30.894;2023-03-25T05:54:28;99251.69;;;14.65;70.36
43681;BME280;29281;50.356;30.894;2023-03-25T05:55:31;99252.34;;;14.67;69.73
43681;BME280;29281;50.356;30.894;2023-03-25T05:56:33;99254.81;;;14.78;70.66
43681;BME280;29281;50.356;30.894;2023-03-25T05:57:40;99258.77;;;14.74;69.45
43681;BME280;29281;50.356;30.894;2023-03-25T05:58:43;99247.38;;;14.90;69.53
43681;BME280;29281;50.356;30.894;2023-03-25T05:59:47;99246.16;;;14.85;68.77
43681;BME280;29281;50.356;30.894;2023-03-25T06:00:50;99251.14;;;14.80;69.96
43681;BME280;29281;50.356;30.894;2023-03-25T06:01:54;99251.98;;;14.80;68.77
43681;BME280;29281;50.356;30.894;2023-03-25T06:02:58;99254.27;;;14.75;68.84
43681;BME280;29281;50.356;30.894;2023-03-25T06:04:00;99251.59;;;14.75;69.76
43681;BME280;29281;50.356;30.894;2023-03-25T06:05:05;99239.31;;;14.64;69.85
43681;BME280;29281;50.356;30.894;2023-03-25T06:06:10;99245.86;;;14.52;69.87
43681;BME280;29281;50.356;30.894;2023-03-25T06:07:18;99244.72;;;14.72;70.35
43681;BME280;29281;50.356;30.894;2023-03-25T06:08:25;99244.66;;;14.64;69.82
43681;BME280;29281;50.356;30.894;2023-03-25T06:09:28;99236.79;;;14.45;71.17
43681;BME280;29281;50.356;30.894;2023-03-25T06:10:33;99241.59;;;14.59;70.47
43681;BME280;29281;50.356;30.894;2023-03-25T06:11:36;99240.06;;;14.74;70.01
43681;BME280;29281;50.356;30.894;2023-03-25T06:12:43;99229.42;;;14.83;70.19
43681;BME280;29281;50.356;30.894;2023-03-25T06:13:48;99233.13;;;14.82;70.15
43681;BME280;29281;50.356;30.894;2023-03-25T06:14:52;99236.41;;;14.75;69.83
43681;BME280;29281;50.356;30.894;2023-03-25T06:15:58;99223.58;;;14.79;69.80
43681;BME280;29281;50.356;30.894;2023-03-25T06:17:01;99235.41;;;14.76;69.80
43681;BME280;29281;50.356;30.894;2023-03-25T06:18:05;99229.97;;;14.86;69.43